createdAt,value
2019-03-20T00:00:08.682Z,69.75
2019-03-20T00:02:36.877Z,69.95
2019-03-20T00:05:06.113Z,70.24
2019-03-20T00:07:34.319Z,70.35
2019-03-20T00:10:02.540Z,70.73
2019-03-20T00:12:30.729Z,70.61
2019-03-20T00:14:58.761Z,69.81
2019-03-20T00:17:27.726Z,69.61
2019-03-20T00:19:55.945Z,69.18
2019-03-20T00:22:24.148Z,69.26
2019-03-20T00:24:52.356Z,69.24
2019-03-20T00:27:20.559Z,69.21
2019-03-20T00:29:48.778Z,69.41
2019-03-20T00:32:16.977Z,69.41
2019-03-20T00:34:45.179Z,69.98
2019-03-20T00:37:13.392Z,69.97
2019-03-20T00:39:41.595Z,69.56
2019-03-20T00:42:09.810Z,69.70
2019-03-20T00:44:38.008Z,69.99
2019-03-20T00:47:06.217Z,69.89
2019-03-20T00:49:34.421Z,69.44
2019-03-20T00:52:02.624Z,69.50
2019-03-20T00:54:30.832Z,69.51
2019-03-20T00:56:59.038Z,69.63
2019-03-20T00:59:27.256Z,69.67
2019-03-20T01:01:55.456Z,69.32
2019-03-20T01:04:23.668Z,69.35
2019-03-20T01:06:51.862Z,69.59
2019-03-20T01:09:20.072Z,69.19
2019-03-20T01:11:48.272Z,69.11
2019-03-20T01:14:16.492Z,69.03
2019-03-20T01:16:44.696Z,69.04
2019-03-20T01:19:12.979Z,69.63
2019-03-20T01:21:41.197Z,69.72
2019-03-20T01:24:09.398Z,70.10
2019-03-20T01:26:37.619Z,69.79
2019-03-20T01:29:05.807Z,69.47
2019-03-20T01:31:34.024Z,69.71
2019-03-20T01:34:02.225Z,69.90
2019-03-20T01:36:30.443Z,70.02
2019-03-20T01:38:58.638Z,69.84
2019-03-20T01:41:37.408Z,70.15
2019-03-20T01:43:56.775Z,70.09
2019-03-20T01:46:24.969Z,69.54
2019-03-20T01:48:53.184Z,69.71
2019-03-20T01:51:22.025Z,69.83
2019-03-20T01:53:50.235Z,69.95
2019-03-20T01:56:18.434Z,69.84
2019-03-20T01:58:46.888Z,69.93
2019-03-20T02:01:15.087Z,69.82
2019-03-20T02:03:43.296Z,69.70
2019-03-20T02:06:11.495Z,69.78
2019-03-20T02:08:39.713Z,69.59
2019-03-20T02:11:07.914Z,69.12
2019-03-20T02:13:36.110Z,68.97
2019-03-20T02:16:04.317Z,68.96
2019-03-20T02:18:32.511Z,68.87
2019-03-20T02:21:00.736Z,68.70
2019-03-20T02:23:28.933Z,68.71
2019-03-20T02:25:57.141Z,69.05
2019-03-20T02:28:25.339Z,68.64
2019-03-20T02:30:53.549Z,68.82
2019-03-20T02:33:21.794Z,68.48
2019-03-20T02:35:51.757Z,68.60
2019-03-20T02:38:19.872Z,68.29
2019-03-20T02:40:48.095Z,68.43
2019-03-20T02:43:16.292Z,68.18
2019-03-20T02:45:44.503Z,68.12
2019-03-20T02:48:12.705Z,68.19
2019-03-20T02:50:40.907Z,68.07
2019-03-20T02:53:09.116Z,68.11
2019-03-20T02:55:37.314Z,68.03
2019-03-20T02:58:05.524Z,68.16
2019-03-20T03:00:33.949Z,67.91
2019-03-20T03:03:02.185Z,67.88
2019-03-20T03:05:30.355Z,67.78
2019-03-20T03:07:59.297Z,67.82
2019-03-20T03:10:27.497Z,67.72
2019-03-20T03:12:55.725Z,67.80
2019-03-20T03:15:23.918Z,67.70
2019-03-20T03:17:52.133Z,67.78
2019-03-20T03:20:20.334Z,68.01
2019-03-20T03:22:48.534Z,67.99
2019-03-20T03:25:16.759Z,67.97
2019-03-20T03:27:44.950Z,67.83
2019-03-20T03:30:14.791Z,67.85
2019-03-20T03:32:43.189Z,68.00
2019-03-20T03:35:16.797Z,68.10
2019-03-20T03:37:41.306Z,67.89
2019-03-20T03:40:12.515Z,68.09
2019-03-20T03:42:40.712Z,68.23
2019-03-20T03:45:11.258Z,68.30
2019-03-20T03:47:39.457Z,68.19
2019-03-20T03:50:08.708Z,68.07
2019-03-20T03:52:36.993Z,68.10
2019-03-20T03:55:06.733Z,67.94
2019-03-20T03:57:35.165Z,68.18
2019-03-20T04:00:03.529Z,68.50
2019-03-20T04:02:31.748Z,68.98
2019-03-20T04:04:59.957Z,68.35
2019-03-20T04:07:28.156Z,68.51
2019-03-20T04:09:56.357Z,68.39
2019-03-20T04:12:24.589Z,68.39
2019-03-20T04:14:52.782Z,67.99
2019-03-20T04:17:26.808Z,68.34
2019-03-20T04:19:55.009Z,68.29
2019-03-20T04:22:23.233Z,68.51
2019-03-20T04:24:51.429Z,68.44
2019-03-20T04:27:19.646Z,68.62
2019-03-20T04:29:47.839Z,68.65
2019-03-20T04:32:17.321Z,68.88
2019-03-20T04:34:45.430Z,69.03
2019-03-20T04:37:13.876Z,69.26
2019-03-20T04:39:42.075Z,69.21
2019-03-20T04:42:10.300Z,68.92
2019-03-20T04:44:38.495Z,69.25
2019-03-20T04:47:06.699Z,68.86
2019-03-20T04:49:34.918Z,68.92
2019-03-20T04:52:03.112Z,69.03
2019-03-20T04:54:31.325Z,68.95
2019-03-20T04:56:59.520Z,69.11
2019-03-20T04:59:27.740Z,69.33
2019-03-20T05:01:55.943Z,69.43
2019-03-20T05:04:24.144Z,69.24
2019-03-20T05:06:58.870Z,69.34
2019-03-20T05:09:22.283Z,69.48
2019-03-20T05:11:51.233Z,69.65
2019-03-20T05:14:19.438Z,69.60
2019-03-20T05:16:47.650Z,69.81
2019-03-20T05:19:15.853Z,69.71
2019-03-20T05:21:44.069Z,69.51
2019-03-20T05:24:12.280Z,69.19
2019-03-20T05:26:40.479Z,69.34
2019-03-20T05:29:08.693Z,69.07
2019-03-20T05:31:36.905Z,68.85
2019-03-20T05:34:05.123Z,68.91
2019-03-20T05:36:33.320Z,68.98
2019-03-20T05:39:01.542Z,69.36
2019-03-20T05:41:29.737Z,69.19
2019-03-20T05:43:57.942Z,68.91
2019-03-20T05:46:26.164Z,68.85
2019-03-20T05:48:54.370Z,68.74
2019-03-20T05:51:22.586Z,68.55
2019-03-20T05:53:50.798Z,68.67
2019-03-20T05:56:19.012Z,68.45
2019-03-20T05:58:47.213Z,68.30
2019-03-20T06:01:15.436Z,68.22
2019-03-20T06:03:43.641Z,68.49
2019-03-20T06:06:11.843Z,68.21
2019-03-20T06:08:40.305Z,68.33
2019-03-20T06:11:08.521Z,68.25
2019-03-20T06:13:36.727Z,68.28
2019-03-20T06:16:04.933Z,68.33
2019-03-20T06:18:33.156Z,68.28
2019-03-20T06:21:01.349Z,68.12
2019-03-20T06:23:29.553Z,68.14
2019-03-20T06:25:57.787Z,68.03
2019-03-20T06:28:25.977Z,67.87
2019-03-20T06:30:54.184Z,68.01
2019-03-20T06:33:22.381Z,67.80
2019-03-20T06:35:50.600Z,67.77
2019-03-20T06:38:18.810Z,67.80
2019-03-20T06:40:47.026Z,67.50
2019-03-20T06:43:15.486Z,67.37
2019-03-20T06:45:43.705Z,67.86
2019-03-20T06:48:11.916Z,67.58
2019-03-20T06:50:40.136Z,67.65
2019-03-20T06:53:08.339Z,67.74
2019-03-20T06:55:36.553Z,67.65
2019-03-20T06:58:04.775Z,67.79
2019-03-20T07:00:42.131Z,67.46
2019-03-20T07:03:28.325Z,67.64
2019-03-20T07:06:11.532Z,67.60
2019-03-20T07:08:45.886Z,67.51
2019-03-20T07:11:14.028Z,67.45
2019-03-20T07:13:42.231Z,67.73
2019-03-20T07:16:10.452Z,67.77
2019-03-20T07:18:38.652Z,67.54
2019-03-20T07:21:06.871Z,67.67
2019-03-20T07:23:35.072Z,67.76
2019-03-20T07:26:03.283Z,67.37
2019-03-20T07:28:31.497Z,67.59
2019-03-20T07:30:59.699Z,67.29
2019-03-20T07:33:27.913Z,67.34
2019-03-20T07:35:56.696Z,67.09
2019-03-20T07:38:24.907Z,67.09
2019-03-20T07:40:53.112Z,66.79
2019-03-20T07:43:21.340Z,66.71
2019-03-20T07:45:49.532Z,66.82
2019-03-20T07:48:22.494Z,66.78
2019-03-20T07:50:47.676Z,66.63
2019-03-20T07:53:18.372Z,66.78
2019-03-20T07:55:46.577Z,66.74
2019-03-20T07:58:15.240Z,66.79
2019-03-20T08:00:43.455Z,66.84
2019-03-20T08:03:11.658Z,66.93
2019-03-20T08:05:40.608Z,66.85
2019-03-20T08:08:08.810Z,66.88
2019-03-20T08:10:37.045Z,66.94
2019-03-20T08:13:05.249Z,66.79
2019-03-20T08:15:35.166Z,66.55
2019-03-20T08:18:03.483Z,66.40
2019-03-20T08:20:31.816Z,66.46
2019-03-20T08:23:00.028Z,66.41
2019-03-20T08:25:28.229Z,66.40
2019-03-20T08:27:56.449Z,66.41
2019-03-20T08:30:24.653Z,67.21
2019-03-20T08:32:53.606Z,66.85
2019-03-20T08:35:21.816Z,66.69
2019-03-20T08:37:50.019Z,67.04
2019-03-20T08:40:18.861Z,67.28
2019-03-20T08:42:47.068Z,66.86
2019-03-20T08:45:16.739Z,66.84
2019-03-20T08:47:44.941Z,66.84
2019-03-20T08:50:22.075Z,66.91
2019-03-20T08:52:50.276Z,66.85
2019-03-20T08:55:19.225Z,66.73
2019-03-20T08:57:47.440Z,66.63
2019-03-20T09:00:19.657Z,66.90
2019-03-20T09:02:47.949Z,66.94
2019-03-20T09:05:16.152Z,67.07
2019-03-20T09:07:47.534Z,66.64
2019-03-20T09:10:24.040Z,66.41
2019-03-20T09:12:52.220Z,66.25
2019-03-20T09:15:20.870Z,66.17
2019-03-20T09:17:49.073Z,66.16
2019-03-20T09:20:17.919Z,66.04
2019-03-20T09:22:46.123Z,66.14
2019-03-20T09:25:17.591Z,66.38
2019-03-20T09:27:45.793Z,66.83
2019-03-20T09:30:16.611Z,66.70
2019-03-20T09:32:44.816Z,66.85
2019-03-20T09:35:13.494Z,66.84
2019-03-20T09:37:51.361Z,66.77
2019-03-20T09:40:16.279Z,66.82
2019-03-20T09:42:44.482Z,67.05
2019-03-20T09:45:17.584Z,66.97
2019-03-20T09:47:45.792Z,67.00
2019-03-20T09:50:15.552Z,67.51
2019-03-20T09:52:43.755Z,67.51
2019-03-20T09:55:15.905Z,67.76
2019-03-20T09:57:44.118Z,68.01
2019-03-20T10:00:26.371Z,67.57
2019-03-20T10:02:54.637Z,67.94
2019-03-20T10:05:22.839Z,67.93
2019-03-20T10:07:51.055Z,67.94
2019-03-20T10:10:29.216Z,68.04
2019-03-20T10:12:57.444Z,68.04
2019-03-20T10:15:31.893Z,67.90
2019-03-20T10:18:00.112Z,68.00
2019-03-20T10:20:28.381Z,68.30
2019-03-20T10:22:56.599Z,68.68
2019-03-20T10:25:25.466Z,69.04
2019-03-20T10:27:53.686Z,69.74
2019-03-20T10:30:23.684Z,69.74
2019-03-20T10:32:51.937Z,69.47
2019-03-20T10:35:20.110Z,69.75
2019-03-20T10:37:48.313Z,70.10
2019-03-20T10:40:26.373Z,69.90
2019-03-20T10:42:54.831Z,70.87
2019-03-20T10:45:24.757Z,71.34
2019-03-20T10:47:53.555Z,71.34
2019-03-20T10:50:25.173Z,71.65
2019-03-20T10:52:53.550Z,71.65
2019-03-20T10:55:21.768Z,71.27
2019-03-20T10:57:49.967Z,71.27
2019-03-20T11:00:20.734Z,71.87
2019-03-20T11:02:48.959Z,72.56
2019-03-20T11:05:17.496Z,71.91
2019-03-20T11:07:45.719Z,72.32
2019-03-20T11:10:17.179Z,73.58
2019-03-20T11:12:45.660Z,73.58
2019-03-20T11:15:17.930Z,73.69
2019-03-20T11:17:46.213Z,73.15
2019-03-20T11:20:16.072Z,73.15
2019-03-20T11:22:44.286Z,74.07
2019-03-20T11:25:17.298Z,74.38
2019-03-20T11:27:45.513Z,73.80
2019-03-20T11:30:19.610Z,74.14
2019-03-20T11:32:47.827Z,74.46
2019-03-20T11:35:16.037Z,74.41
2019-03-20T11:37:44.257Z,74.41
2019-03-20T11:40:15.502Z,74.60
2019-03-20T11:42:43.718Z,74.60
2019-03-20T11:45:11.915Z,74.67
2019-03-20T11:47:40.131Z,75.63
2019-03-20T11:50:14.310Z,75.04
2019-03-20T11:52:42.522Z,74.63
2019-03-20T11:55:10.732Z,74.96
2019-03-20T11:57:38.956Z,75.14
2019-03-20T12:00:15.509Z,75.38
2019-03-20T12:02:43.727Z,75.60
2019-03-20T12:05:12.389Z,76.30
2019-03-20T12:07:40.599Z,75.67
2019-03-20T12:10:12.070Z,75.82
2019-03-20T12:12:40.279Z,75.82
2019-03-20T12:15:10.232Z,76.34
2019-03-20T12:17:38.523Z,76.85
2019-03-20T12:20:13.287Z,75.40
2019-03-20T12:22:41.560Z,75.40
2019-03-20T12:25:18.310Z,75.50
2019-03-20T12:27:46.510Z,75.11
2019-03-20T12:30:17.155Z,75.44
2019-03-20T12:32:45.377Z,75.44
2019-03-20T12:35:15.420Z,76.35
2019-03-20T12:37:43.639Z,75.97
2019-03-20T12:40:20.197Z,76.33
2019-03-20T12:42:48.415Z,76.54
2019-03-20T12:45:19.424Z,77.08
2019-03-20T12:47:47.631Z,76.94
2019-03-20T12:50:15.854Z,76.21
2019-03-20T12:52:44.072Z,76.34
2019-03-20T12:55:14.779Z,76.34
2019-03-20T12:57:42.977Z,76.54
2019-03-20T13:00:22.589Z,76.79
2019-03-20T13:02:50.873Z,76.93
2019-03-20T13:05:19.083Z,76.53
2019-03-20T13:07:47.303Z,76.95
2019-03-20T13:10:23.339Z,76.78
2019-03-20T13:12:51.549Z,76.78
2019-03-20T13:15:23.994Z,76.94
2019-03-20T13:17:52.854Z,76.46
2019-03-20T13:20:21.120Z,76.91
2019-03-20T13:23:07.241Z,76.82
2019-03-20T13:25:35.442Z,77.72
2019-03-20T13:28:03.665Z,77.72
2019-03-20T13:30:40.734Z,77.23
2019-03-20T13:33:08.954Z,77.09
2019-03-20T13:35:37.149Z,76.95
2019-03-20T13:38:05.632Z,76.92
2019-03-20T13:40:33.841Z,77.32
2019-03-20T13:43:02.067Z,76.85
2019-03-20T13:45:30.271Z,77.16
2019-03-20T13:47:58.494Z,77.78
2019-03-20T13:50:26.703Z,77.78
2019-03-20T13:52:54.921Z,77.99
2019-03-20T13:55:23.129Z,77.99
2019-03-20T13:57:51.352Z,77.90
2019-03-20T14:00:23.572Z,78.05
2019-03-20T14:02:51.783Z,78.06
2019-03-20T14:05:20.004Z,78.39
2019-03-20T14:07:48.209Z,78.34
2019-03-20T14:10:27.105Z,78.02
2019-03-20T14:12:55.321Z,77.33
2019-03-20T14:15:23.550Z,77.43
2019-03-20T14:17:51.753Z,77.48
2019-03-20T14:20:24.881Z,77.51
2019-03-20T14:22:53.082Z,77.59
2019-03-20T14:25:21.640Z,78.08
2019-03-20T14:27:50.452Z,78.23
2019-03-20T14:30:21.925Z,78.12
2019-03-20T14:32:50.137Z,78.09
2019-03-20T14:35:18.351Z,78.35
2019-03-20T14:37:46.562Z,78.78
2019-03-20T14:40:36.067Z,78.78
2019-03-20T14:43:00.952Z,77.83
2019-03-20T14:45:29.180Z,77.83
2019-03-20T14:47:57.378Z,77.72
2019-03-20T14:50:26.235Z,77.95
2019-03-20T14:52:54.693Z,77.95
2019-03-20T14:55:22.900Z,78.10
2019-03-20T14:57:51.101Z,78.19
2019-03-20T15:00:21.518Z,77.72
2019-03-20T15:02:49.720Z,78.65
2019-03-20T15:05:17.925Z,78.65
2019-03-20T15:07:46.141Z,78.44
2019-03-20T15:10:16.178Z,78.90
2019-03-20T15:12:44.400Z,78.92
2019-03-20T15:15:40.802Z,78.92
2019-03-20T15:18:09.028Z,79.50
2019-03-20T15:20:37.228Z,79.50
2019-03-20T15:23:05.435Z,79.09
2019-03-20T15:25:33.655Z,78.85
2019-03-20T15:28:01.873Z,79.00
2019-03-20T15:30:30.671Z,79.14
2019-03-20T15:32:58.884Z,79.00
2019-03-20T15:35:27.088Z,79.00
2019-03-20T15:37:55.316Z,78.94
2019-03-20T15:40:25.069Z,78.80
2019-03-20T15:42:53.287Z,78.80
2019-03-20T15:45:21.494Z,78.71
2019-03-20T15:47:49.721Z,79.40
2019-03-20T15:50:25.625Z,78.87
2019-03-20T15:52:53.851Z,78.87
2019-03-20T15:55:31.341Z,78.79
2019-03-20T15:57:59.556Z,78.97
2019-03-20T16:00:27.764Z,79.10
2019-03-20T16:03:01.607Z,79.11
2019-03-20T16:05:29.829Z,79.02
2019-03-20T16:07:58.042Z,79.41
2019-03-20T16:10:26.262Z,79.41
2019-03-20T16:12:54.482Z,79.26
2019-03-20T16:15:23.513Z,79.26
2019-03-20T16:17:51.736Z,79.37
2019-03-20T16:20:19.942Z,78.92
2019-03-20T16:22:48.172Z,78.67
2019-03-20T16:25:18.470Z,79.09
2019-03-20T16:27:46.684Z,79.39
2019-03-20T16:30:26.074Z,79.91
2019-03-20T16:32:56.368Z,79.91
2019-03-20T16:35:24.220Z,80.16
2019-03-20T16:37:53.167Z,80.00
2019-03-20T16:40:24.621Z,80.00
2019-03-20T16:42:52.851Z,79.94
2019-03-20T16:45:28.633Z,79.60
2019-03-20T16:47:56.866Z,80.25
2019-03-20T16:50:25.077Z,80.25
2019-03-20T16:52:53.327Z,80.21
2019-03-20T16:55:21.576Z,79.86
2019-03-20T16:57:49.791Z,79.95
2019-03-20T17:00:32.029Z,80.15
2019-03-20T17:03:00.231Z,80.21
2019-03-20T17:05:29.561Z,79.92
2019-03-20T17:07:57.781Z,79.92
2019-03-20T17:10:34.953Z,79.85
2019-03-20T17:13:03.286Z,79.74
2019-03-20T17:15:34.065Z,79.98
2019-03-20T17:18:02.265Z,80.02
2019-03-20T17:20:30.933Z,79.87
2019-03-20T17:22:59.081Z,80.00
2019-03-20T17:25:27.290Z,80.19
2019-03-20T17:27:55.718Z,80.10
2019-03-20T17:30:26.115Z,79.90
2019-03-20T17:32:54.347Z,79.79
2019-03-20T17:35:22.676Z,79.73
2019-03-20T17:37:51.161Z,79.93
2019-03-20T17:40:23.254Z,79.92
2019-03-20T17:42:51.464Z,80.16
2019-03-20T17:45:20.927Z,80.02
2019-03-20T17:47:49.198Z,80.14
2019-03-20T17:50:28.578Z,80.04
2019-03-20T17:52:56.896Z,80.02
2019-03-20T17:55:25.235Z,80.18
2019-03-20T17:57:53.472Z,80.21
2019-03-20T18:00:37.523Z,80.10
2019-03-20T18:03:06.597Z,80.10
2019-03-20T18:05:35.405Z,80.64
2019-03-20T18:08:04.605Z,80.64
2019-03-20T18:10:34.721Z,80.31
2019-03-20T18:13:02.923Z,80.34
2019-03-20T18:15:31.161Z,80.55
2019-03-20T18:17:59.619Z,80.61
2019-03-20T18:20:27.854Z,80.40
2019-03-20T18:22:56.075Z,80.32
2019-03-20T18:25:24.565Z,80.70
2019-03-20T18:27:53.047Z,80.87
2019-03-20T18:30:32.009Z,80.71
2019-03-20T18:33:00.228Z,81.05
2019-03-20T18:35:28.429Z,81.02
2019-03-20T18:37:56.626Z,81.17
2019-03-20T18:40:26.839Z,81.21
2019-03-20T18:42:55.114Z,81.38
2019-03-20T18:45:24.075Z,81.15
2019-03-20T18:47:52.275Z,81.37
2019-03-20T18:50:21.963Z,81.02
2019-03-20T18:52:50.177Z,81.00
2019-03-20T18:55:19.124Z,81.19
2019-03-20T18:57:47.408Z,81.68
2019-03-20T19:00:32.807Z,81.68
2019-03-20T19:03:13.827Z,81.42
2019-03-20T19:05:56.968Z,81.28
2019-03-20T19:08:25.189Z,81.53
2019-03-20T19:10:53.456Z,81.37
2019-03-20T19:13:21.711Z,81.33
2019-03-20T19:15:49.979Z,81.56
2019-03-20T19:18:18.187Z,81.31
2019-03-20T19:20:46.439Z,81.46
2019-03-20T19:23:14.619Z,82.04
2019-03-20T19:25:42.831Z,82.04
2019-03-20T19:28:11.075Z,81.93
2019-03-20T19:30:39.293Z,81.85
2019-03-20T19:33:07.491Z,81.94
2019-03-20T19:35:35.713Z,81.93
2019-03-20T19:38:03.922Z,81.96
2019-03-20T19:40:32.126Z,81.62
2019-03-20T19:43:00.347Z,81.72
2019-03-20T19:45:28.550Z,81.64
2019-03-20T19:47:56.763Z,82.02
2019-03-20T19:50:24.971Z,81.93
2019-03-20T19:52:53.193Z,81.93
2019-03-20T19:55:21.399Z,81.77
2019-03-20T19:57:50.165Z,81.96
2019-03-20T20:00:25.097Z,81.75
2019-03-20T20:02:53.299Z,82.28
2019-03-20T20:05:22.373Z,82.16
2019-03-20T20:07:50.584Z,81.87
2019-03-20T20:10:19.430Z,81.98
2019-03-20T20:12:47.702Z,81.92
2019-03-20T20:15:26.877Z,81.89
2019-03-20T20:17:55.109Z,82.10
2019-03-20T20:20:36.942Z,82.08
2019-03-20T20:23:05.175Z,82.12
2019-03-20T20:25:33.373Z,82.50
2019-03-20T20:28:01.578Z,82.24
2019-03-20T20:30:29.791Z,82.10
2019-03-20T20:32:58.006Z,82.01
2019-03-20T20:35:26.205Z,81.92
2019-03-20T20:37:54.433Z,81.97
2019-03-20T20:40:23.682Z,82.09
2019-03-20T20:42:51.885Z,82.36
2019-03-20T20:45:20.163Z,82.28
2019-03-20T20:47:48.320Z,82.21
2019-03-20T20:50:17.170Z,82.21
2019-03-20T20:52:45.734Z,82.04
2019-03-20T20:55:21.388Z,82.37
2019-03-20T20:57:49.601Z,82.39
2019-03-20T21:00:20.209Z,82.93
2019-03-20T21:02:48.425Z,82.52
2019-03-20T21:05:16.638Z,82.67
2019-03-20T21:07:44.848Z,82.43
2019-03-20T21:10:15.570Z,82.43
2019-03-20T21:12:55.197Z,82.90
2019-03-20T21:15:19.312Z,82.90
2019-03-20T21:17:53.266Z,82.62
2019-03-20T21:20:21.474Z,82.62
2019-03-20T21:23:25.813Z,82.51
2019-03-20T21:25:54.034Z,82.85
2019-03-20T21:28:58.748Z,82.89
2019-03-20T21:31:30.477Z,82.89
2019-03-20T21:34:08.003Z,82.40
2019-03-20T21:36:54.074Z,82.85
2019-03-20T21:39:22.274Z,82.85
2019-03-20T21:42:08.662Z,82.89
2019-03-20T21:45:00.329Z,83.14
2019-03-20T21:47:34.291Z,82.81
2019-03-20T21:50:11.348Z,82.75
2019-03-20T21:52:39.586Z,82.85
2019-03-20T21:55:20.058Z,82.85
2019-03-20T21:57:54.245Z,82.59
2019-03-20T22:00:57.095Z,82.65
2019-03-20T22:03:25.324Z,82.74
2019-03-20T22:06:08.698Z,83.03
2019-03-20T22:08:36.917Z,82.73
2019-03-20T22:11:24.515Z,82.73
2019-03-20T22:13:58.761Z,82.78
2019-03-20T22:16:32.848Z,82.95
2019-03-20T22:19:20.826Z,82.95
2019-03-20T22:22:08.512Z,82.68
2019-03-20T22:25:11.257Z,82.75
2019-03-20T22:27:42.718Z,82.79
2019-03-20T22:30:10.940Z,82.62
2019-03-20T22:32:42.411Z,82.45
2019-03-20T22:35:25.726Z,82.60
2019-03-20T22:37:54.976Z,82.76
2019-03-20T22:40:48.929Z,82.76
2019-03-20T22:43:30.153Z,82.64
2019-03-20T22:46:03.942Z,82.67
2019-03-20T22:48:51.970Z,82.60
2019-03-20T22:51:38.064Z,82.65
2019-03-20T22:54:25.822Z,82.61
2019-03-20T22:57:09.008Z,82.43
2019-03-20T22:59:37.465Z,82.60
2019-03-20T23:02:16.795Z,82.40
2019-03-20T23:04:48.259Z,82.40
2019-03-20T23:07:16.711Z,82.52
2019-03-20T23:09:44.919Z,82.52
2019-03-20T23:12:13.983Z,82.54
2019-03-20T23:14:42.264Z,82.43
2019-03-20T23:17:10.724Z,82.66
2019-03-20T23:19:40.167Z,82.31
2019-03-20T23:22:08.724Z,82.47
2019-03-20T23:24:37.011Z,82.29
2019-03-20T23:27:08.634Z,82.33
2019-03-20T23:29:36.847Z,82.17
2019-03-20T23:32:05.054Z,82.06
2019-03-20T23:34:33.277Z,82.06
2019-03-20T23:37:01.486Z,82.92
2019-03-20T23:39:29.710Z,82.92
2019-03-20T23:41:57.910Z,82.34
2019-03-20T23:44:26.125Z,82.34
2019-03-20T23:46:54.333Z,82.25
2019-03-20T23:49:24.992Z,82.62
2019-03-20T23:51:54.034Z,82.55
2019-03-20T23:54:26.251Z,82.55
2019-03-20T23:56:54.444Z,82.63
2019-03-20T23:59:22.660Z,82.65
